Time;durP1;ratioP1;P1;durP2;ratioP2;P2;SDS_P1;SDS_P2;PMS_P1;PMS_P2;Temp;Humidity;BMP_temperature;BMP_pressure;BME280_temperature;BME280_humidity;BME280_pressure;Samples;Min_cycle;Max_cycle;Signal;HPM_P1;HPM_P2
2023/02/04 00:02:56;;;;;;;;;;;8.50;99.90;;;;;;8394456;28;19928;-75
2023/02/04 00:06:58;;;;;;;;;;;8.40;99.90;;;;;;8399017;28;19924;-75
2023/02/04 00:10:59;;;;;;;;;;;8.40;99.90;;;;;;8381092;28;19931;-75
2023/02/04 00:15:01;;;;;;;;;;;8.40;99.90;;;;;;8395521;28;20383;-75
2023/02/04 00:19:03;;;;;;;;;;;8.30;99.90;;;;;;8388465;28;19931;-75
2023/02/04 00:23:05;;;;;;;;;;;8.30;99.90;;;;;;8405857;28;20372;-75
2023/02/04 00:27:06;;;;;;;;;;;8.20;99.90;;;;;;8382035;28;20395;-75
2023/02/04 00:31:08;;;;;;;;;;;8.20;99.90;;;;;;8400797;28;19925;-75
2023/02/04 00:35:10;;;;;;;;;;;8.20;99.90;;;;;;8396383;28;19924;-75
2023/02/04 00:39:11;;;;;;;;;;;8.10;99.90;;;;;;8397067;28;19946;-75
2023/02/04 00:43:13;;;;;;;;;;;8.10;99.90;;;;;;8375120;28;19928;-75
2023/02/04 00:47:14;;;;;;;;;;;8.00;99.90;;;;;;8394520;28;19929;-75
2023/02/04 00:51:16;;;;;;;;;;;7.90;99.90;;;;;;8383829;28;19955;-75
2023/02/04 00:55:18;;;;;;;;;;;7.80;99.90;;;;;;8382785;28;19924;-75
2023/02/04 00:59:19;;;;;;;;;;;7.80;99.90;;;;;;8382418;28;20080;-75
2023/02/04 01:03:21;;;;;;;;;;;7.70;99.90;;;;;;8382040;28;20015;-75
2023/02/04 01:07:23;;;;;;;;;;;7.60;99.90;;;;;;8398562;28;19932;-75
2023/02/04 01:11:25;;;;;;;;;;;7.60;99.90;;;;;;8377106;28;19931;-75
2023/02/04 01:15:26;;;;;;;;;;;7.60;99.90;;;;;;8394084;28;19935;-75
2023/02/04 01:19:28;;;;;;;;;;;7.60;99.90;;;;;;8382778;28;20240;-75
2023/02/04 01:23:30;;;;;;;;;;;7.60;99.90;;;;;;8402389;28;19970;-75
2023/02/04 01:27:31;;;;;;;;;;;7.60;99.90;;;;;;8391138;28;20079;-75
2023/02/04 01:31:33;;;;;;;;;;;7.60;99.90;;;;;;8403432;28;20372;-75
2023/02/04 01:35:35;;;;;;;;;;;7.60;99.90;;;;;;8384123;28;20261;-74
2023/02/04 01:39:36;;;;;;;;;;;7.60;99.90;;;;;;8392091;28;19928;-75
2023/02/04 01:43:38;;;;;;;;;;;7.60;99.90;;;;;;8395876;28;19925;-75
2023/02/04 01:47:40;;;;;;;;;;;7.60;99.90;;;;;;8386390;28;19939;-75
2023/02/04 01:51:42;;;;;;;;;;;7.60;99.90;;;;;;8375500;28;19962;-75
2023/02/04 01:55:43;;;;;;;;;;;7.60;99.90;;;;;;8400459;28;19925;-75
2023/02/04 01:59:46;;;;;;;;;;;7.60;99.90;;;;;;8377242;28;20035;-75
2023/02/04 02:03:47;;;;;;;;;;;7.60;99.90;;;;;;8403353;28;19924;-75
2023/02/04 02:07:49;;;;;;;;;;;7.60;99.90;;;;;;8397646;28;20407;-75
2023/02/04 02:11:51;;;;;;;;;;;7.60;99.90;;;;;;8398112;28;20007;-75
2023/02/04 02:15:53;;;;;;;;;;;7.70;99.90;;;;;;8386634;28;20015;-75
2023/02/04 02:19:55;;;;;;;;;;;7.70;99.90;;;;;;8390926;28;20291;-75
2023/02/04 02:23:56;;;;;;;;;;;7.60;99.90;;;;;;8383871;28;19946;-75
2023/02/04 02:27:59;;;;;;;;;;;7.60;99.90;;;;;;8378155;28;19968;-75
2023/02/04 02:32:01;;;;;;;;;;;7.60;99.90;;;;;;8387281;28;19928;-75
2023/02/04 02:36:02;;;;;;;;;;;7.60;99.90;;;;;;8398769;28;20023;-75
2023/02/04 02:40:05;;;;;;;;;;;7.60;99.90;;;;;;8369646;28;19930;-75
2023/02/04 02:44:08;;;;;;;;;;;7.60;99.90;;;;;;8390259;28;19982;-75
2023/02/04 02:48:10;;;;;;;;;;;7.60;99.90;;;;;;8389448;28;20034;-75
2023/02/04 02:52:11;;;;;;;;;;;7.60;99.90;;;;;;8383857;28;19924;-75
2023/02/04 02:56:13;;;;;;;;;;;7.70;99.90;;;;;;8395893;28;19931;-75
2023/02/04 03:00:16;;;;;;;;;;;7.70;99.90;;;;;;8374350;28;19934;-75
2023/02/04 03:04:19;;;;;;;;;;;7.70;99.90;;;;;;8399660;28;19946;-75
2023/02/04 03:08:20;;;;;;;;;;;7.70;99.90;;;;;;8377334;28;20384;-75
2023/02/04 03:12:22;;;;;;;;;;;7.60;99.90;;;;;;8388148;28;19931;-75
2023/02/04 03:16:24;;;;;;;;;;;7.60;99.90;;;;;;8386065;28;19937;-75
2023/02/04 03:20:26;;;;;;;;;;;7.60;99.90;;;;;;8394760;28;20486;-75
2023/02/04 03:24:28;;;;;;;;;;;7.60;99.90;;;;;;8377984;28;19927;-75
2023/02/04 03:28:30;;;;;;;;;;;7.60;99.90;;;;;;8387751;28;19992;-75
2023/02/04 03:32:32;;;;;;;;;;;7.50;99.90;;;;;;8378122;28;19938;-75
2023/02/04 03:36:33;;;;;;;;;;;7.50;99.90;;;;;;8393856;28;19991;-75
2023/02/04 03:40:35;;;;;;;;;;;7.50;99.90;;;;;;8371130;28;20031;-75
2023/02/04 03:44:37;;;;;;;;;;;7.40;99.90;;;;;;8388213;28;19972;-75
2023/02/04 03:48:38;;;;;;;;;;;7.30;99.90;;;;;;8388290;28;19925;-75
2023/02/04 03:52:40;;;;;;;;;;;7.30;99.90;;;;;;8375292;28;19935;-75
2023/02/04 03:56:41;;;;;;;;;;;7.30;99.90;;;;;;8398863;28;19924;-75
2023/02/04 04:00:43;;;;;;;;;;;7.20;99.90;;;;;;8387884;28;19925;-75
2023/02/04 04:04:44;;;;;;;;;;;7.10;99.90;;;;;;8392403;28;19932;-75
2023/02/04 04:08:46;;;;;;;;;;;7.00;99.90;;;;;;8395099;28;20587;-75
2023/02/04 04:12:48;;;;;;;;;;;6.90;99.90;;;;;;8400831;28;19930;-75
2023/02/04 04:16:49;;;;;;;;;;;6.80;99.90;;;;;;8392297;28;20135;-75
2023/02/04 04:20:51;;;;;;;;;;;6.70;99.90;;;;;;8395841;28;20016;-75
2023/02/04 04:24:52;;;;;;;;;;;6.60;99.90;;;;;;8384549;28;19928;-75
2023/02/04 04:28:54;;;;;;;;;;;6.60;99.90;;;;;;8402984;28;19928;-75
2023/02/04 04:32:56;;;;;;;;;;;6.60;99.90;;;;;;8401845;28;19972;-75
2023/02/04 04:36:57;;;;;;;;;;;6.60;99.90;;;;;;8399485;28;19935;-75
2023/02/04 04:40:59;;;;;;;;;;;6.50;99.90;;;;;;8407627;28;19960;-75
2023/02/04 04:45:00;;;;;;;;;;;6.50;99.90;;;;;;8380733;28;22417;-75
2023/02/04 04:49:03;;;;;;;;;;;6.50;99.90;;;;;;8401936;28;20380;-75
2023/02/04 04:53:09;;;;;;;;;;;6.50;99.90;;;;;;8404782;28;20324;-75
2023/02/04 04:57:11;;;;;;;;;;;6.50;99.90;;;;;;8401207;28;19932;-75
2023/02/04 05:01:13;;;;;;;;;;;6.50;99.90;;;;;;8397712;28;20277;-75
2023/02/04 05:05:14;;;;;;;;;;;6.50;99.90;;;;;;8399282;28;19931;-75
2023/02/04 05:09:16;;;;;;;;;;;6.40;99.90;;;;;;8399850;28;19959;-75
2023/02/04 05:13:17;;;;;;;;;;;6.40;99.90;;;;;;8384434;28;19929;-75
2023/02/04 05:17:19;;;;;;;;;;;6.40;99.90;;;;;;8390586;28;19975;-75
2023/02/04 05:21:21;;;;;;;;;;;6.40;99.90;;;;;;8383125;28;19939;-75
2023/02/04 05:25:22;;;;;;;;;;;6.40;99.90;;;;;;8384402;28;19925;-75
2023/02/04 05:29:24;;;;;;;;;;;6.40;99.90;;;;;;8378941;28;20010;-75
2023/02/04 05:33:26;;;;;;;;;;;6.40;99.90;;;;;;8380207;28;19928;-75
2023/02/04 05:37:27;;;;;;;;;;;6.50;99.90;;;;;;8391654;28;19932;-75
2023/02/04 05:41:31;;;;;;;;;;;6.50;99.90;;;;;;8408210;28;21247;-75
2023/02/04 05:45:32;;;;;;;;;;;6.50;99.90;;;;;;8364702;28;20402;-75
2023/02/04 05:49:34;;;;;;;;;;;6.50;99.90;;;;;;8385374;28;19967;-75
2023/02/04 05:53:36;;;;;;;;;;;6.50;99.90;;;;;;8388041;28;19924;-75
2023/02/04 05:57:40;;;;;;;;;;;6.50;99.90;;;;;;8371300;28;19963;-75
2023/02/04 06:01:42;;;;;;;;;;;6.50;99.90;;;;;;8394085;28;19950;-75
2023/02/04 06:05:44;;;;;;;;;;;6.50;99.90;;;;;;8375467;28;20399;-75
2023/02/04 06:09:46;;;;;;;;;;;6.50;99.90;;;;;;8390006;28;20310;-74
2023/02/04 06:13:47;;;;;;;;;;;6.60;99.90;;;;;;8382194;28;19928;-75
2023/02/04 06:17:49;;;;;;;;;;;6.60;99.90;;;;;;8397528;28;19967;-75
2023/02/04 06:21:50;;;;;;;;;;;6.70;99.90;;;;;;8382427;28;20376;-75
2023/02/04 06:25:52;;;;;;;;;;;6.70;99.90;;;;;;8390586;28;19962;-75
2023/02/04 06:29:54;;;;;;;;;;;6.70;99.90;;;;;;8375081;28;19954;-75
2023/02/04 06:33:56;;;;;;;;;;;6.70;99.90;;;;;;8394455;28;19933;-75
2023/02/04 06:37:57;;;;;;;;;;;6.70;99.90;;;;;;8383171;28;19932;-75
2023/02/04 06:41:59;;;;;;;;;;;6.70;99.90;;;;;;8367194;28;20027;-75
2023/02/04 06:46:00;;;;;;;;;;;6.70;99.90;;;;;;8382368;28;19975;-75
2023/02/04 06:50:02;;;;;;;;;;;6.70;99.90;;;;;;8389216;28;19924;-75
2023/02/04 06:54:04;;;;;;;;;;;6.70;99.90;;;;;;8367164;28;19959;-75
2023/02/04 06:58:06;;;;;;;;;;;6.70;99.90;;;;;;8393651;28;19924;-75
2023/02/04 07:02:09;;;;;;;;;;;6.70;99.90;;;;;;8369384;28;20582;-75
2023/02/04 07:06:11;;;;;;;;;;;6.70;99.90;;;;;;8400924;28;20284;-75
2023/02/04 07:10:13;;;;;;;;;;;6.70;99.90;;;;;;8374663;28;19972;-75
2023/02/04 07:14:15;;;;;;;;;;;6.80;99.90;;;;;;8386885;28;19960;-75
2023/02/04 07:23:23;;;;;;;;;;;6.70;99.90;;;;;;8381390;28;19943;-75
2023/02/04 07:27:24;;;;;;;;;;;6.70;99.90;;;;;;8387902;28;20051;-75
2023/02/04 07:31:26;;;;;;;;;;;6.70;99.90;;;;;;8377308;28;20371;-75
2023/02/04 07:35:28;;;;;;;;;;;6.70;99.90;;;;;;8373718;28;19932;-75
2023/02/04 07:39:30;;;;;;;;;;;6.70;99.90;;;;;;8392772;28;19924;-75
2023/02/04 07:43:31;;;;;;;;;;;6.80;99.90;;;;;;8404826;28;19928;-75
2023/02/04 07:47:33;;;;;;;;;;;6.80;99.90;;;;;;8383660;28;19971;-75
2023/02/04 07:51:35;;;;;;;;;;;6.90;99.90;;;;;;8387870;28;19925;-75
2023/02/04 07:55:36;;;;;;;;;;;6.90;99.90;;;;;;8404896;28;20351;-75
2023/02/04 07:59:38;;;;;;;;;;;7.00;99.90;;;;;;8398724;28;20031;-75
2023/02/04 08:03:41;;;;;;;;;;;7.00;99.90;;;;;;8397497;28;20295;-75
2023/02/04 08:07:43;;;;;;;;;;;7.00;99.90;;;;;;8386345;28;19931;-75
2023/02/04 08:11:45;;;;;;;;;;;7.10;99.90;;;;;;8400824;28;19994;-75
2023/02/04 08:15:46;;;;;;;;;;;7.10;99.90;;;;;;8399564;28;20304;-75
2023/02/04 08:19:48;;;;;;;;;;;7.20;99.90;;;;;;8394926;28;20420;-75
2023/02/04 08:23:49;;;;;;;;;;;7.20;99.90;;;;;;8388525;28;19935;-75
2023/02/04 08:27:51;;;;;;;;;;;7.30;99.90;;;;;;8397322;28;20399;-75
2023/02/04 08:31:53;;;;;;;;;;;7.30;99.90;;;;;;8370578;28;19931;-75
2023/02/04 08:35:54;;;;;;;;;;;7.30;99.90;;;;;;8390399;28;20010;-75
2023/02/04 08:39:56;;;;;;;;;;;7.40;99.90;;;;;;8398518;28;19924;-75
2023/02/04 08:43:58;;;;;;;;;;;7.40;99.90;;;;;;8399063;28;19959;-75
2023/02/04 08:47:59;;;;;;;;;;;7.50;99.90;;;;;;8390290;28;19931;-74
2023/02/04 08:52:03;;;;;;;;;;;7.60;99.90;;;;;;8390264;28;19929;-75
2023/02/04 08:56:04;;;;;;;;;;;7.60;99.90;;;;;;8382515;28;19924;-75
2023/02/04 09:00:07;;;;;;;;;;;7.80;99.90;;;;;;8403404;28;20035;-75
2023/02/04 09:04:08;;;;;;;;;;;7.80;99.90;;;;;;8389754;28;19932;-75
2023/02/04 09:08:10;;;;;;;;;;;7.90;99.90;;;;;;8393864;28;20393;-75
2023/02/04 09:12:11;;;;;;;;;;;8.00;99.90;;;;;;8392824;28;19925;-75
2023/02/04 09:16:13;;;;;;;;;;;8.10;99.90;;;;;;8394829;28;19935;-75
2023/02/04 09:20:15;;;;;;;;;;;8.10;99.90;;;;;;8386341;28;20520;-75
2023/02/04 09:24:17;;;;;;;;;;;8.20;99.90;;;;;;8387857;28;19932;-75
2023/02/04 09:28:18;;;;;;;;;;;8.20;99.90;;;;;;8390792;28;20059;-75
2023/02/04 09:32:20;;;;;;;;;;;8.30;99.90;;;;;;8395624;28;19928;-75
2023/02/04 09:36:27;;;;;;;;;;;8.40;99.90;;;;;;8384079;28;19928;-75
2023/02/04 09:40:30;;;;;;;;;;;8.50;99.90;;;;;;8395472;28;19929;-75
2023/02/04 09:44:32;;;;;;;;;;;8.70;99.90;;;;;;8384235;28;20007;-75
2023/02/04 09:48:34;;;;;;;;;;;8.80;99.90;;;;;;8385125;28;19947;-75
2023/02/04 09:52:35;;;;;;;;;;;9.10;99.90;;;;;;8403266;28;19947;-75
2023/02/04 09:56:37;;;;;;;;;;;9.40;99.90;;;;;;8381210;28;20014;-75
2023/02/04 10:00:39;;;;;;;;;;;9.60;99.90;;;;;;8406532;28;19939;-75
2023/02/04 10:04:40;;;;;;;;;;;9.70;99.90;;;;;;8409340;28;19979;-75
2023/02/04 10:08:43;;;;;;;;;;;9.90;99.90;;;;;;8394952;28;20325;-75
2023/02/04 10:12:45;;;;;;;;;;;10.20;99.90;;;;;;8399478;28;19967;-75
2023/02/04 10:16:50;;;;;;;;;;;10.40;99.90;;;;;;8387084;28;20051;-75
2023/02/04 10:20:55;;;;;;;;;;;10.60;99.90;;;;;;8401675;28;20379;-75
2023/02/04 10:24:56;;;;;;;;;;;10.90;99.90;;;;;;8394594;28;19962;-75
2023/02/04 10:28:59;;;;;;;;;;;11.30;99.90;;;;;;8397012;28;19930;-75
2023/02/04 10:33:11;;;;;;;;;;;11.80;99.90;;;;;;8387075;28;19927;-75
2023/02/04 10:37:20;;;;;;;;;;;12.30;99.90;;;;;;8368269;28;19999;-76
2023/02/04 10:41:21;;;;;;;;;;;12.40;99.90;;;;;;8395358;28;19928;-75
2023/02/04 10:45:28;;;;;;;;;;;12.50;99.90;;;;;;8389972;28;19983;-75
2023/02/04 10:49:30;;;;;;;;;;;12.70;99.90;;;;;;8386894;28;20403;-75
2023/02/04 10:57:52;;;;;;;;;;;13.50;99.90;;;;;;8391565;28;19932;-75
2023/02/04 11:01:54;;;;;;;;;;;13.70;99.90;;;;;;8381104;28;20028;-76
2023/02/04 11:05:57;;;;;;;;;;;13.40;99.90;;;;;;8368992;28;19963;-75
2023/02/04 11:09:59;;;;;;;;;;;13.20;99.90;;;;;;8392639;28;20019;-75
2023/02/04 11:14:02;;;;;;;;;;;13.00;99.90;;;;;;8399145;28;20007;-75
2023/02/04 11:18:05;;;;;;;;;;;12.90;99.90;;;;;;8373120;28;19977;-75
2023/02/04 11:22:19;;;;;;;;;;;12.80;99.90;;;;;;8383708;28;19932;-75
2023/02/04 11:26:34;;;;;;;;;;;12.70;99.90;;;;;;8387149;28;19967;-75
2023/02/04 11:30:36;;;;;;;;;;;12.40;99.90;;;;;;8381176;28;19964;-75
2023/02/04 11:34:48;;;;;;;;;;;12.30;99.90;;;;;;8397492;28;19938;-75
2023/02/04 11:38:50;;;;;;;;;;;12.30;99.90;;;;;;8405901;28;19928;-76
2023/02/04 11:42:56;;;;;;;;;;;12.30;99.90;;;;;;8389358;28;20019;-76
2023/02/04 11:46:59;;;;;;;;;;;12.20;99.90;;;;;;8400107;28;19975;-75
2023/02/04 11:51:02;;;;;;;;;;;12.10;99.90;;;;;;8379455;28;19928;-75
2023/02/04 11:55:04;;;;;;;;;;;12.10;99.90;;;;;;8388007;28;19935;-75
2023/02/04 11:59:08;;;;;;;;;;;12.10;99.90;;;;;;8380373;28;19924;-75
2023/02/04 12:03:36;;;;;;;;;;;12.10;99.90;;;;;;8396989;28;19939;-76
2023/02/04 12:07:37;;;;;;;;;;;12.10;99.90;;;;;;8375442;28;19964;-75
2023/02/04 12:11:50;;;;;;;;;;;12.10;99.90;;;;;;8379263;28;20388;-75
2023/02/04 12:15:54;;;;;;;;;;;12.10;99.90;;;;;;8387314;28;20375;-75
2023/02/04 12:19:56;;;;;;;;;;;12.40;99.90;;;;;;8384689;28;19925;-75
2023/02/04 12:23:57;;;;;;;;;;;12.70;99.90;;;;;;8370194;28;19979;-75
2023/02/04 12:27:59;;;;;;;;;;;12.70;99.90;;;;;;8371145;28;19967;-75
2023/02/04 12:32:01;;;;;;;;;;;12.60;99.90;;;;;;8381890;28;19924;-75
2023/02/04 12:36:03;;;;;;;;;;;12.60;99.90;;;;;;8406223;28;20287;-76
2023/02/04 12:40:05;;;;;;;;;;;12.80;99.90;;;;;;8393160;28;19925;-75
2023/02/04 12:44:06;;;;;;;;;;;12.90;99.90;;;;;;8401157;28;19936;-75
2023/02/04 12:48:08;;;;;;;;;;;12.90;99.90;;;;;;8373132;28;19963;-75
2023/02/04 12:52:10;;;;;;;;;;;12.80;99.90;;;;;;8391169;28;20362;-75
2023/02/04 12:56:11;;;;;;;;;;;13.20;99.90;;;;;;8390696;28;19925;-75
2023/02/04 13:00:14;;;;;;;;;;;13.90;99.90;;;;;;8409900;28;19964;-75
2023/02/04 13:04:15;;;;;;;;;;;14.40;99.90;;;;;;8378951;28;19930;-75
2023/02/04 13:08:17;;;;;;;;;;;14.60;99.90;;;;;;8390874;28;20465;-76
2023/02/04 13:12:19;;;;;;;;;;;14.50;99.90;;;;;;8403312;28;19949;-75
2023/02/04 13:16:22;;;;;;;;;;;14.60;99.90;;;;;;8375571;28;19929;-75
2023/02/04 13:20:24;;;;;;;;;;;15.10;99.90;;;;;;8397672;28;19928;-76
2023/02/04 13:24:26;;;;;;;;;;;15.60;99.90;;;;;;8387230;28;19935;-75
2023/02/04 13:28:28;;;;;;;;;;;16.10;99.90;;;;;;8405155;28;19928;-75
2023/02/04 13:32:29;;;;;;;;;;;16.00;99.90;;;;;;8373963;28;19933;-75
2023/02/04 13:36:31;;;;;;;;;;;15.50;99.90;;;;;;8387783;28;20292;-75
2023/02/04 13:40:33;;;;;;;;;;;15.20;99.90;;;;;;8387107;28;19924;-75
2023/02/04 13:44:34;;;;;;;;;;;14.90;99.90;;;;;;8373333;28;19931;-76
2023/02/04 13:48:36;;;;;;;;;;;14.70;99.90;;;;;;8362228;28;20016;-76
2023/02/04 13:52:38;;;;;;;;;;;14.40;99.90;;;;;;8396556;28;19971;-75
2023/02/04 13:56:40;;;;;;;;;;;14.20;99.90;;;;;;8395031;28;19932;-75
2023/02/04 14:00:41;;;;;;;;;;;14.00;99.90;;;;;;8406228;28;20337;-75
2023/02/04 14:04:43;;;;;;;;;;;13.80;99.90;;;;;;8387797;28;20578;-75
2023/02/04 14:08:45;;;;;;;;;;;13.70;99.90;;;;;;8395025;28;19928;-75
2023/02/04 14:12:47;;;;;;;;;;;13.50;99.90;;;;;;8373840;28;19999;-76
2023/02/04 14:16:49;;;;;;;;;;;13.30;99.90;;;;;;8383770;28;19947;-75
2023/02/04 14:20:50;;;;;;;;;;;13.10;99.90;;;;;;8391485;28;19991;-75
2023/02/04 14:24:52;;;;;;;;;;;13.10;99.90;;;;;;8394478;28;19955;-75
2023/02/04 14:28:54;;;;;;;;;;;13.00;99.90;;;;;;8370893;28;19924;-75
2023/02/04 14:32:56;;;;;;;;;;;13.00;99.90;;;;;;8349603;28;19929;-75
2023/02/04 14:36:57;;;;;;;;;;;13.00;99.90;;;;;;8355404;28;20011;-76
2023/02/04 14:40:59;;;;;;;;;;;12.90;99.90;;;;;;8357285;28;19928;-76
2023/02/04 14:45:04;;;;;;;;;;;12.70;99.90;;;;;;8375749;28;19936;-76
2023/02/04 14:49:05;;;;;;;;;;;12.50;99.90;;;;;;8364424;28;19925;-76
2023/02/04 14:53:07;;;;;;;;;;;12.30;99.90;;;;;;8361665;28;20410;-76
2023/02/04 14:57:10;;;;;;;;;;;12.20;99.90;;;;;;8381940;28;20410;-75
2023/02/04 15:01:12;;;;;;;;;;;12.00;99.90;;;;;;8367041;28;19932;-76
2023/02/04 15:05:14;;;;;;;;;;;11.90;99.90;;;;;;8360049;28;19964;-76
2023/02/04 15:09:15;;;;;;;;;;;11.80;99.90;;;;;;8366093;28;19980;-76
2023/02/04 15:13:17;;;;;;;;;;;11.80;99.90;;;;;;8355019;28;20058;-76
2023/02/04 15:17:18;;;;;;;;;;;11.90;99.90;;;;;;8364752;28;19976;-76
2023/02/04 15:21:20;;;;;;;;;;;12.00;99.90;;;;;;8356541;28;19955;-76
2023/02/04 15:25:22;;;;;;;;;;;12.10;99.90;;;;;;8363419;28;20699;-75
2023/02/04 15:29:24;;;;;;;;;;;12.10;99.90;;;;;;8377278;28;19929;-75
2023/02/04 15:33:25;;;;;;;;;;;12.10;99.90;;;;;;8360400;28;19929;-75
2023/02/04 15:37:27;;;;;;;;;;;12.10;99.90;;;;;;8354850;28;20011;-75
2023/02/04 15:41:28;;;;;;;;;;;12.10;99.90;;;;;;8364527;28;19971;-75
2023/02/04 15:45:30;;;;;;;;;;;12.00;99.90;;;;;;8355984;28;19939;-75
2023/02/04 15:49:32;;;;;;;;;;;12.00;99.90;;;;;;8371373;28;19928;-75
2023/02/04 15:53:34;;;;;;;;;;;11.90;99.90;;;;;;8359306;28;19959;-75
2023/02/04 15:57:36;;;;;;;;;;;11.80;99.90;;;;;;8375796;28;19966;-75
2023/02/04 16:01:37;;;;;;;;;;;11.70;99.90;;;;;;8365628;28;20027;-75
2023/02/04 16:05:39;;;;;;;;;;;11.70;99.90;;;;;;8367897;28;19933;-75
2023/02/04 16:09:42;;;;;;;;;;;11.70;99.90;;;;;;8367046;28;20024;-75
2023/02/04 16:13:44;;;;;;;;;;;11.60;99.90;;;;;;8358761;28;19929;-75
2023/02/04 16:17:46;;;;;;;;;;;11.50;99.90;;;;;;8373799;28;19928;-75
2023/02/04 16:21:47;;;;;;;;;;;11.50;99.90;;;;;;8367286;28;19978;-75
2023/02/04 16:25:50;;;;;;;;;;;11.40;99.90;;;;;;8372798;28;20334;-75
2023/02/04 16:29:52;;;;;;;;;;;11.30;99.90;;;;;;8356204;28;19928;-76
2023/02/04 16:33:57;;;;;;;;;;;11.30;99.90;;;;;;8349255;28;19983;-75
2023/02/04 16:37:58;;;;;;;;;;;11.30;99.90;;;;;;8351513;28;19939;-75
2023/02/04 16:42:00;;;;;;;;;;;11.20;99.90;;;;;;8364956;28;20366;-75
2023/02/04 16:46:02;;;;;;;;;;;11.20;99.90;;;;;;8366399;28;20003;-75
2023/02/04 16:50:04;;;;;;;;;;;11.20;99.90;;;;;;8371858;28;19925;-75
2023/02/04 16:54:06;;;;;;;;;;;11.10;99.90;;;;;;8367301;28;19925;-75
2023/02/04 16:58:08;;;;;;;;;;;11.10;99.90;;;;;;8348726;28;19930;-75
2023/02/04 17:02:10;;;;;;;;;;;11.00;99.90;;;;;;8367823;28;20019;-75
2023/02/04 17:06:15;;;;;;;;;;;11.00;99.90;;;;;;8344425;28;19933;-75
2023/02/04 17:11:27;;;;;;;;;;;10.90;99.90;;;;;;8365514;28;20142;-75
2023/02/04 17:14:39;;;;;;;;;;;10.90;99.90;;;;;;8361077;28;19929;-75
2023/02/04 17:18:41;;;;;;;;;;;10.80;99.90;;;;;;8366951;28;19950;-75
2023/02/04 17:22:43;;;;;;;;;;;10.80;99.90;;;;;;8368487;28;20022;-75
2023/02/04 17:26:44;;;;;;;;;;;10.70;99.90;;;;;;8367839;28;19932;-75
2023/02/04 17:30:46;;;;;;;;;;;10.70;99.90;;;;;;8356668;28;19925;-75
2023/02/04 17:34:49;;;;;;;;;;;10.60;99.90;;;;;;8354139;28;19975;-75
2023/02/04 17:38:51;;;;;;;;;;;10.60;99.90;;;;;;8361379;28;19932;-75
2023/02/04 17:42:55;;;;;;;;;;;10.60;99.90;;;;;;8362921;28;19924;-75
2023/02/04 17:46:57;;;;;;;;;;;10.50;99.90;;;;;;8348810;28;21500;-75
2023/02/04 17:50:59;;;;;;;;;;;10.50;99.90;;;;;;8371603;28;19933;-75
2023/02/04 17:55:05;;;;;;;;;;;10.50;99.90;;;;;;8366398;28;19929;-75
2023/02/04 17:59:08;;;;;;;;;;;10.50;99.90;;;;;;8368750;28;20299;-75
2023/02/04 18:03:14;;;;;;;;;;;10.50;99.90;;;;;;8368848;28;20372;-75
2023/02/04 18:07:16;;;;;;;;;;;10.40;99.90;;;;;;8364693;28;19928;-75
2023/02/04 18:11:19;;;;;;;;;;;10.40;99.90;;;;;;8356511;28;20007;-75
2023/02/04 18:15:26;;;;;;;;;;;10.30;99.90;;;;;;8339579;28;20019;-76
2023/02/04 18:19:29;;;;;;;;;;;10.30;99.90;;;;;;8357339;28;20038;-75
2023/02/04 18:23:31;;;;;;;;;;;10.40;99.90;;;;;;8363655;28;19939;-75
2023/02/04 18:27:33;;;;;;;;;;;10.30;99.90;;;;;;8360044;28;19924;-75
2023/02/04 18:31:37;;;;;;;;;;;10.30;99.90;;;;;;8369018;28;19932;-74
2023/02/04 18:35:45;;;;;;;;;;;10.30;99.90;;;;;;8359510;28;20854;-75
2023/02/04 18:39:47;;;;;;;;;;;10.30;99.90;;;;;;8386586;28;21815;-75
2023/02/04 18:43:50;;;;;;;;;;;10.20;99.90;;;;;;8354990;28;20024;-75
2023/02/04 18:47:55;;;;;;;;;;;10.20;99.90;;;;;;8367207;28;20392;-75
2023/02/04 18:51:58;;;;;;;;;;;10.20;99.90;;;;;;8370730;28;19940;-75
2023/02/04 18:56:00;;;;;;;;;;;10.20;99.90;;;;;;8364742;28;19928;-75
2023/02/04 19:00:08;;;;;;;;;;;10.20;99.90;;;;;;8354448;28;20371;-75
2023/02/04 19:04:18;;;;;;;;;;;10.20;99.90;;;;;;8362534;28;19924;-75
2023/02/04 19:08:23;;;;;;;;;;;10.20;99.90;;;;;;8364991;28;20050;-75
2023/02/04 19:12:25;;;;;;;;;;;10.20;99.90;;;;;;8373012;28;19971;-75
2023/02/04 19:16:35;;;;;;;;;;;10.10;99.90;;;;;;8360282;28;19970;-75
2023/02/04 19:20:38;;;;;;;;;;;10.10;99.90;;;;;;8377583;28;19983;-75
2023/02/04 19:24:40;;;;;;;;;;;10.00;99.90;;;;;;8358743;28;19929;-75
2023/02/04 19:28:41;;;;;;;;;;;9.90;99.90;;;;;;8366980;28;20310;-75
2023/02/04 19:32:44;;;;;;;;;;;9.80;99.90;;;;;;8354595;28;20433;-75
2023/02/04 19:36:46;;;;;;;;;;;9.80;99.90;;;;;;8368078;28;19939;-75
2023/02/04 19:40:49;;;;;;;;;;;9.70;99.90;;;;;;8375036;28;19971;-75
2023/02/04 19:44:51;;;;;;;;;;;9.60;99.90;;;;;;8366364;28;19968;-75
2023/02/04 19:48:54;;;;;;;;;;;9.60;99.90;;;;;;8371175;28;20074;-75
2023/02/04 19:52:58;;;;;;;;;;;9.60;99.90;;;;;;8367333;28;19935;-75
2023/02/04 19:57:00;;;;;;;;;;;9.60;99.90;;;;;;8359873;28;19924;-75
2023/02/04 20:01:03;;;;;;;;;;;9.60;99.90;;;;;;8364550;28;20015;-75
2023/02/04 20:05:14;;;;;;;;;;;9.60;99.90;;;;;;8362072;28;19925;-75
2023/02/04 20:09:17;;;;;;;;;;;9.60;99.90;;;;;;8367735;28;20067;-75
2023/02/04 20:13:19;;;;;;;;;;;9.50;99.90;;;;;;8366659;28;20418;-75
2023/02/04 20:17:21;;;;;;;;;;;9.50;99.90;;;;;;8366213;28;19964;-75
2023/02/04 20:21:23;;;;;;;;;;;9.50;99.90;;;;;;8356897;28;19928;-76
2023/02/04 20:25:31;;;;;;;;;;;9.40;99.90;;;;;;8366653;28;19935;-75
2023/02/04 20:29:33;;;;;;;;;;;9.40;99.90;;;;;;8355992;28;19929;-75
2023/02/04 20:33:39;;;;;;;;;;;9.40;99.90;;;;;;8359676;28;20027;-76
2023/02/04 20:37:41;;;;;;;;;;;9.40;99.90;;;;;;8382149;28;20028;-75
2023/02/04 20:41:43;;;;;;;;;;;9.30;99.90;;;;;;8368798;28;19928;-75
2023/02/04 20:45:47;;;;;;;;;;;9.30;99.90;;;;;;8365178;28;19929;-75
2023/02/04 20:49:54;;;;;;;;;;;9.20;99.90;;;;;;8370943;28;19979;-75
2023/02/04 20:54:01;;;;;;;;;;;9.20;99.90;;;;;;8366479;28;20281;-75
2023/02/04 20:58:16;;;;;;;;;;;9.20;99.90;;;;;;8364491;28;21369;-76
2023/02/04 21:02:19;;;;;;;;;;;9.20;99.90;;;;;;8350749;28;19933;-75
2023/02/04 21:06:24;;;;;;;;;;;9.20;99.90;;;;;;8346732;28;19928;-75
2023/02/04 21:10:25;;;;;;;;;;;9.10;99.90;;;;;;8357434;28;19935;-75
2023/02/04 21:14:27;;;;;;;;;;;9.10;99.90;;;;;;8347587;28;19933;-75
2023/02/04 21:18:29;;;;;;;;;;;9.10;99.90;;;;;;8349327;28;19925;-75
2023/02/04 21:22:31;;;;;;;;;;;9.10;99.90;;;;;;8367541;28;19967;-76
2023/02/04 21:26:33;;;;;;;;;;;9.10;99.90;;;;;;8371268;28;19925;-75
2023/02/04 21:30:35;;;;;;;;;;;9.10;99.90;;;;;;8370323;28;20409;-76
2023/02/04 21:34:37;;;;;;;;;;;9.10;99.90;;;;;;8345348;28;20564;-75
2023/02/04 21:38:39;;;;;;;;;;;9.10;99.90;;;;;;8345689;28;22194;-75
2023/02/04 21:42:40;;;;;;;;;;;9.20;99.90;;;;;;8370189;28;19943;-75
2023/02/04 21:46:42;;;;;;;;;;;9.20;99.90;;;;;;8364793;28;19933;-76
2023/02/04 21:50:43;;;;;;;;;;;9.20;99.90;;;;;;8364335;28;20066;-76
2023/02/04 21:54:45;;;;;;;;;;;9.20;99.90;;;;;;8359989;28;20024;-76
2023/02/04 21:58:47;;;;;;;;;;;9.20;99.90;;;;;;8361279;28;19925;-75
2023/02/04 22:02:49;;;;;;;;;;;9.10;99.90;;;;;;8381058;28;20031;-75
2023/02/04 22:06:51;;;;;;;;;;;9.10;99.90;;;;;;8393499;28;19929;-76
2023/02/04 22:10:52;;;;;;;;;;;9.00;99.90;;;;;;8391036;28;19932;-75
2023/02/04 22:14:54;;;;;;;;;;;9.00;99.90;;;;;;8377493;28;20403;-76
2023/02/04 22:18:56;;;;;;;;;;;9.00;99.90;;;;;;8365086;28;20384;-76
2023/02/04 22:22:58;;;;;;;;;;;9.00;99.90;;;;;;8402624;28;20294;-75
2023/02/04 22:26:59;;;;;;;;;;;9.00;99.90;;;;;;8374507;28;19924;-76
2023/02/04 22:31:01;;;;;;;;;;;9.00;99.90;;;;;;8375267;28;19932;-75
2023/02/04 22:35:03;;;;;;;;;;;9.00;99.90;;;;;;8396021;28;19928;-75
2023/02/04 22:39:05;;;;;;;;;;;9.00;99.90;;;;;;8390319;28;19924;-76
2023/02/04 22:43:06;;;;;;;;;;;8.90;99.90;;;;;;8373173;28;20110;-75
2023/02/04 22:47:08;;;;;;;;;;;9.00;99.90;;;;;;8384470;28;20298;-75
2023/02/04 22:51:09;;;;;;;;;;;9.00;99.90;;;;;;8372934;28;20003;-75
2023/02/04 22:55:11;;;;;;;;;;;9.00;99.90;;;;;;8392209;28;20003;-75
2023/02/04 22:59:13;;;;;;;;;;;9.00;99.90;;;;;;8387483;28;20424;-75
2023/02/04 23:03:14;;;;;;;;;;;8.90;99.90;;;;;;8394346;28;19924;-75
2023/02/04 23:07:16;;;;;;;;;;;8.90;99.90;;;;;;8384690;28;19924;-75
2023/02/04 23:11:18;;;;;;;;;;;8.80;99.90;;;;;;8385172;28;19966;-76
2023/02/04 23:15:20;;;;;;;;;;;8.80;99.90;;;;;;8390445;28;19924;-75
2023/02/04 23:19:21;;;;;;;;;;;8.70;99.90;;;;;;8399654;28;20414;-75
2023/02/04 23:23:23;;;;;;;;;;;8.70;99.90;;;;;;8406505;28;19928;-75
2023/02/04 23:27:25;;;;;;;;;;;8.70;99.90;;;;;;8394866;28;19925;-76
2023/02/04 23:31:27;;;;;;;;;;;8.70;99.90;;;;;;8397928;28;19936;-76
2023/02/04 23:35:29;;;;;;;;;;;8.70;99.90;;;;;;8370793;28;20002;-76
2023/02/04 23:39:31;;;;;;;;;;;8.70;99.90;;;;;;8404343;28;20306;-75
2023/02/04 23:43:33;;;;;;;;;;;8.70;99.90;;;;;;8375304;28;19928;-76
2023/02/04 23:47:35;;;;;;;;;;;8.70;99.90;;;;;;8399880;28;19980;-75
2023/02/04 23:51:36;;;;;;;;;;;8.70;99.90;;;;;;8377865;28;19932;-75
2023/02/04 23:55:38;;;;;;;;;;;8.70;99.90;;;;;;8405193;28;19924;-75